createdAt,value
2022-12-08T00:02:47.583Z,6.97
2022-12-08T00:08:11.511Z,6.70
2022-12-08T00:13:15.678Z,8.07
2022-12-08T00:18:17.346Z,5.13
2022-12-08T00:23:21.329Z,4.67
2022-12-08T00:28:26.034Z,10.30
2022-12-08T00:33:29.895Z,4.50
2022-12-08T00:38:36.687Z,5.03
2022-12-08T00:43:40.568Z,8.40
2022-12-08T00:48:42.206Z,2.80
2022-12-08T00:53:48.416Z,5.37
2022-12-08T00:58:53.022Z,5.90
2022-12-08T01:03:54.732Z,4.87
2022-12-08T01:08:58.681Z,5.67
2022-12-08T01:14:05.547Z,7.27
2022-12-08T01:19:10.644Z,5.53
2022-12-08T01:24:22.810Z,8.83
2022-12-08T01:29:26.993Z,8.73
2022-12-08T01:34:30.946Z,8.53
2022-12-08T01:39:37.469Z,5.97
2022-12-08T01:44:48.333Z,6.77
2022-12-08T01:49:50.061Z,5.63
2022-12-08T01:55:00.592Z,4.53
2022-12-08T02:00:08.586Z,4.27
2022-12-08T02:05:15.335Z,7.47
2022-12-08T02:10:21.079Z,5.83
2022-12-08T02:16:03.947Z,4.57
2022-12-08T02:21:19.341Z,4.57
2022-12-08T02:27:08.907Z,4.60
2022-12-08T02:32:26.277Z,5.53
2022-12-08T02:37:33.078Z,5.33
2022-12-08T02:42:42.241Z,5.27
2022-12-08T02:47:47.177Z,4.50
2022-12-08T02:52:51.246Z,1.90
2022-12-08T02:57:58.824Z,5.30
2022-12-08T03:03:13.342Z,3.40
2022-12-08T03:08:17.206Z,2.97
2022-12-08T03:13:32.182Z,3.07
2022-12-08T03:18:37.678Z,4.83
2022-12-08T03:23:43.145Z,5.57
2022-12-08T03:28:47.268Z,3.23
2022-12-08T03:33:51.979Z,4.03
2022-12-08T03:38:56.252Z,3.73
2022-12-08T03:43:59.538Z,3.53
2022-12-08T03:49:06.016Z,5.37
2022-12-08T03:54:12.306Z,4.40
2022-12-08T03:59:16.378Z,4.03
2022-12-08T04:04:22.783Z,4.27
2022-12-08T04:09:26.594Z,4.97
2022-12-08T04:14:30.564Z,4.30
2022-12-08T04:19:32.385Z,3.27
2022-12-08T04:24:39.984Z,3.27
2022-12-08T04:29:41.691Z,6.40
2022-12-08T04:34:45.763Z,3.83
2022-12-08T04:39:47.467Z,3.20
2022-12-08T04:44:51.393Z,5.70
2022-12-08T04:49:55.740Z,4.03
2022-12-08T04:54:59.763Z,6.93
2022-12-08T05:00:08.801Z,5.00
2022-12-08T05:05:10.684Z,6.55
2022-12-08T05:10:16.960Z,4.90
2022-12-08T05:15:18.699Z,6.83
2022-12-08T05:20:25.055Z,6.37
2022-12-08T05:25:33.358Z,5.70
2022-12-08T05:30:39.607Z,6.70
2022-12-08T05:35:43.613Z,5.30
2022-12-08T05:40:45.319Z,6.53
2022-12-08T05:45:47.132Z,10.17
2022-12-08T05:50:49.588Z,6.00
2022-12-08T05:55:53.562Z,6.27
2022-12-08T06:00:56.096Z,7.57
2022-12-08T06:06:02.528Z,7.20
2022-12-08T06:11:07.315Z,7.97
2022-12-08T06:16:11.332Z,10.93
2022-12-08T06:21:18.807Z,10.60
2022-12-08T06:26:21.876Z,10.80
2022-12-08T06:31:26.421Z,11.53
2022-12-08T06:36:33.177Z,8.50
2022-12-08T06:41:54.786Z,8.33
2022-12-08T06:46:58.706Z,6.53
2022-12-08T06:52:03.863Z,4.10
2022-12-08T06:57:05.552Z,4.63
2022-12-08T07:02:09.958Z,2.70
2022-12-08T07:07:13.574Z,2.27
2022-12-08T07:12:15.731Z,2.33
2022-12-08T07:17:19.707Z,3.87
2022-12-08T07:22:24.358Z,2.47
2022-12-08T07:27:28.715Z,3.10
2022-12-08T07:32:32.655Z,6.50
2022-12-08T07:37:36.070Z,7.23
2022-12-08T07:42:38.746Z,7.13
2022-12-08T07:47:41.309Z,5.80
2022-12-08T07:52:44.124Z,7.33
2022-12-08T07:57:45.761Z,7.97
2022-12-08T08:02:47.626Z,10.17
2022-12-08T08:07:49.630Z,10.70
2022-12-08T08:12:51.328Z,11.13
2022-12-08T08:17:57.355Z,12.60
2022-12-08T08:23:13.698Z,12.33
2022-12-08T08:28:15.582Z,15.27
2022-12-08T08:33:21.561Z,14.47
2022-12-08T08:38:25.978Z,9.70
2022-12-08T08:43:37.807Z,7.77
2022-12-08T08:48:40.668Z,5.87
2022-12-08T08:53:42.819Z,5.67
2022-12-08T08:58:49.033Z,7.50
2022-12-08T09:03:53.473Z,9.23
2022-12-08T09:09:01.521Z,3.93
2022-12-08T09:14:04.489Z,4.50
2022-12-08T09:19:08.979Z,4.73
2022-12-08T09:24:15.964Z,6.37
2022-12-08T09:29:22.449Z,7.53
2022-12-08T09:34:24.181Z,5.13
2022-12-08T09:39:28.371Z,5.37
2022-12-08T09:44:30.134Z,4.90
2022-12-08T09:49:47.075Z,4.83
2022-12-08T09:54:51.046Z,7.43
2022-12-08T09:59:57.871Z,5.30
2022-12-08T10:05:02.977Z,4.67
2022-12-08T10:10:10.901Z,6.37
2022-12-08T10:15:34.662Z,7.77
2022-12-08T10:20:40.396Z,6.73
2022-12-08T10:25:50.577Z,8.27
2022-12-08T10:30:55.319Z,7.83
2022-12-08T10:35:59.186Z,7.10
2022-12-08T10:41:09.955Z,8.93
2022-12-08T10:46:17.469Z,5.87
2022-12-08T10:51:30.461Z,7.93
2022-12-08T10:56:32.816Z,8.37
2022-12-08T11:01:37.919Z,7.30
2022-12-08T11:06:43.472Z,5.77
2022-12-08T11:12:24.112Z,11.93
2022-12-08T11:17:27.660Z,5.30
2022-12-08T11:22:35.075Z,3.40
2022-12-08T11:27:43.569Z,4.83
2022-12-08T11:32:54.907Z,3.03
2022-12-08T11:38:20.659Z,3.90
2022-12-08T11:43:39.389Z,5.00
2022-12-08T11:48:43.794Z,4.97
2022-12-08T11:54:08.020Z,5.23
2022-12-08T11:59:24.405Z,5.07
2022-12-08T12:04:35.622Z,3.40
2022-12-08T12:09:39.783Z,1.20
2022-12-08T12:14:55.654Z,1.10
2022-12-08T12:20:02.819Z,3.13
2022-12-08T12:25:06.924Z,1.73
2022-12-08T12:30:14.340Z,2.13
2022-12-08T12:35:27.690Z,3.00
2022-12-08T12:40:36.623Z,4.20
2022-12-08T12:45:43.964Z,2.20
2022-12-08T12:50:49.753Z,3.57
2022-12-08T12:56:04.359Z,4.50
2022-12-08T13:01:15.232Z,4.10
2022-12-08T13:06:32.191Z,3.57
2022-12-08T13:11:56.779Z,4.03
2022-12-08T13:17:02.186Z,1.60
2022-12-08T13:22:43.956Z,3.50
2022-12-08T13:27:53.723Z,2.60
2022-12-08T13:38:22.672Z,4.00
2022-12-08T13:43:51.355Z,4.53
2022-12-08T13:55:12.968Z,2.20
2022-12-08T13:59:52.745Z,2.47
2022-12-08T14:10:25.958Z,3.43
2022-12-08T14:15:34.174Z,3.43
2022-12-08T14:21:12.604Z,3.63
2022-12-08T14:26:11.069Z,1.93
2022-12-08T14:31:15.113Z,2.83
2022-12-08T14:36:21.038Z,4.27
2022-12-08T14:41:31.973Z,2.23
2022-12-08T14:46:36.793Z,1.83
2022-12-08T14:51:39.897Z,5.37
2022-12-08T14:56:46.740Z,4.23
2022-12-08T15:01:51.068Z,4.70
2022-12-08T15:06:57.817Z,4.57
2022-12-08T15:12:07.212Z,8.33
2022-12-08T15:17:31.805Z,3.27
2022-12-08T15:22:33.761Z,2.77
2022-12-08T15:27:49.565Z,2.37
2022-12-08T15:32:54.327Z,2.83
2022-12-08T15:37:56.041Z,5.43
2022-12-08T15:43:00.723Z,5.57
2022-12-08T15:48:06.108Z,5.37
2022-12-08T15:53:10.842Z,4.17
2022-12-08T15:58:53.101Z,6.70
2022-12-08T16:09:31.291Z,6.33
2022-12-08T16:15:39.747Z,4.30
2022-12-08T16:19:56.655Z,8.43
2022-12-08T16:25:14.726Z,7.77
2022-12-08T16:30:22.318Z,9.07
2022-12-08T16:35:24.549Z,21.17
2022-12-08T16:40:28.749Z,13.67
2022-12-08T16:45:30.647Z,14.13
2022-12-08T16:50:37.561Z,11.57
2022-12-08T16:55:39.736Z,7.40
2022-12-08T17:00:45.940Z,10.07
2022-12-08T17:05:51.168Z,19.83
2022-12-08T17:11:07.262Z,16.60
2022-12-08T17:16:11.460Z,27.87
2022-12-08T17:21:17.905Z,36.70
2022-12-08T17:26:25.198Z,73.13
2022-12-08T17:31:31.131Z,38.93
2022-12-08T17:36:33.282Z,43.27
2022-12-08T17:41:37.515Z,39.20
2022-12-08T17:46:52.180Z,64.97
2022-12-08T17:51:56.782Z,57.63
2022-12-08T17:57:00.088Z,45.87
2022-12-08T18:02:04.690Z,42.93
2022-12-08T18:07:07.976Z,47.53
2022-12-08T18:12:12.199Z,43.67
2022-12-08T18:17:22.430Z,51.23
2022-12-08T18:22:24.234Z,67.80
2022-12-08T18:27:26.020Z,58.00
2022-12-08T18:32:27.858Z,61.13
2022-12-08T18:37:29.766Z,54.60
2022-12-08T18:42:36.464Z,60.63
2022-12-08T18:47:39.955Z,70.00
2022-12-08T18:52:41.813Z,60.27
2022-12-08T18:57:43.678Z,56.87
2022-12-08T19:02:45.630Z,62.70
2022-12-08T19:07:49.230Z,59.33
2022-12-08T19:12:52.841Z,210.27
2022-12-08T19:17:54.521Z,63.90
2022-12-08T19:22:56.360Z,61.90
2022-12-08T19:27:58.093Z,56.87
2022-12-08T19:33:01.972Z,43.37
2022-12-08T19:38:07.936Z,37.67
2022-12-08T19:43:33.076Z,38.33
2022-12-08T19:48:34.844Z,48.57
2022-12-08T19:53:36.950Z,48.43
2022-12-08T19:58:40.926Z,40.40
2022-12-08T20:03:44.966Z,37.23
2022-12-08T20:08:51.026Z,41.53
2022-12-08T20:13:55.029Z,41.53
2022-12-08T20:19:00.603Z,34.43
2022-12-08T20:24:04.691Z,163.00
2022-12-08T20:29:06.495Z,136.73
2022-12-08T20:34:16.046Z,151.77
2022-12-08T20:39:20.573Z,240.03
2022-12-08T20:44:24.595Z,71.37
2022-12-08T20:49:34.550Z,60.67
2022-12-08T20:54:37.379Z,42.23
2022-12-08T20:59:42.095Z,37.13
2022-12-08T21:04:49.311Z,39.50
2022-12-08T21:09:52.637Z,40.13
2022-12-08T21:14:54.632Z,47.30
2022-12-08T21:19:56.584Z,40.70
2022-12-08T21:25:00.764Z,36.83
2022-12-08T21:30:04.183Z,42.27
2022-12-08T21:35:09.792Z,33.33
2022-12-08T21:40:13.442Z,40.63
2022-12-08T21:45:18.790Z,46.67
2022-12-08T21:50:25.031Z,48.40
2022-12-08T21:55:32.257Z,45.27
2022-12-08T22:00:36.434Z,48.87
2022-12-08T22:05:38.287Z,41.57
2022-12-08T22:10:42.921Z,72.03
2022-12-08T22:15:47.510Z,54.53
2022-12-08T22:20:49.363Z,174.30
2022-12-08T22:26:02.091Z,126.50
2022-12-08T22:31:13.267Z,185.27
2022-12-08T22:36:19.268Z,258.83
2022-12-08T22:41:25.929Z,172.70
2022-12-08T22:46:33.376Z,170.40
2022-12-08T22:51:36.735Z,200.37
2022-12-08T22:56:39.584Z,220.27
2022-12-08T23:01:41.325Z,170.23
2022-12-08T23:06:43.017Z,192.73
2022-12-08T23:11:47.440Z,195.23
2022-12-08T23:16:49.341Z,187.43
2022-12-08T23:21:53.245Z,253.73
2022-12-08T23:26:57.233Z,213.67
2022-12-08T23:31:59.964Z,226.27
2022-12-08T23:37:02.673Z,254.87
2022-12-08T23:42:07.747Z,223.20
2022-12-08T23:47:13.932Z,243.10
2022-12-08T23:52:19.840Z,189.43
2022-12-08T23:57:24.857Z,195.33
